Terminal Aerodrome Forecast
Issued by NWS Shreveport, LA

Home | Current Version | Previous Version | Text Only | Print | Product List | Glossary On
Versions: 1 2 3 4 5 6 7 8 9 10 11 12 13 14 15 16 17 18 19 20 21 22 23 24 25 26 27
894
FTUS44 KSHV 201739
TAFSHV
TAF
KSHV 201739Z 2018/2118 VRB04KT P6SM VCSH OVC025
      TEMPO 2018/2020 30010KT -SHRA OVC040
     FM210000 22005KT 5SM -SHRA BR OVC015
     FM210700 VRB04KT 4SM BR OVC010
      TEMPO 2109/2113 1SM BR OVC005
     FM211500 25008KT P6SM BKN020=

USA.gov is the U.S. government's official web portal to all federal, state and local government web resources and services.